Time;durP1;ratioP1;P1;durP2;ratioP2;P2;SDS_P1;SDS_P2;PMS_P1;PMS_P2;Temp;Humidity;BMP_temperature;BMP_pressure;BME280_temperature;BME280_humidity;BME280_pressure;Samples;Min_cycle;Max_cycle;Signal;HPM_P1;HPM_P2
2022/01/10 00:01:54;;;;;;;19.20;3.70;;;27.00;99.90;;;;;;5074459;28;20029;-73
2022/01/10 00:04:21;;;;;;;17.23;3.70;;;26.90;99.90;;;;;;5074836;28;20492;-73
2022/01/10 00:06:49;;;;;;;20.95;3.72;;;26.80;99.90;;;;;;5074870;28;20058;-70
2022/01/10 00:09:16;;;;;;;17.42;4.10;;;26.70;99.90;;;;;;5074780;28;20024;-73
2022/01/10 00:11:43;;;;;;;19.50;4.57;;;26.70;99.90;;;;;;5074490;28;20402;-73
2022/01/10 00:14:11;;;;;;;21.77;4.60;;;26.60;99.90;;;;;;5074782;28;20476;-73
2022/01/10 00:16:38;;;;;;;21.42;3.67;;;26.60;99.90;;;;;;5074769;28;20086;-72
2022/01/10 00:19:05;;;;;;;22.08;3.88;;;26.60;99.90;;;;;;5074828;28;20021;-72
2022/01/10 00:21:33;;;;;;;16.23;4.57;;;26.40;99.90;;;;;;5074323;28;20024;-71
2022/01/10 00:24:00;;;;;;;21.13;4.80;;;26.40;99.90;;;;;;5074247;28;20036;-69
2022/01/10 00:26:28;;;;;;;16.83;3.65;;;26.40;99.90;;;;;;5073714;28;20462;-71
2022/01/10 00:28:55;;;;;;;24.95;4.20;;;26.40;99.90;;;;;;5073827;28;20066;-71
2022/01/10 00:31:22;;;;;;;18.67;3.75;;;26.30;99.90;;;;;;5072519;28;20047;-73
2022/01/10 00:33:50;;;;;;;19.35;4.90;;;26.30;99.90;;;;;;5073986;28;20032;-70
2022/01/10 00:36:17;;;;;;;17.15;3.80;;;26.30;99.90;;;;;;5074163;28;20097;-70
2022/01/10 00:38:45;;;;;;;16.58;4.93;;;26.30;99.90;;;;;;5073791;28;20031;-72
2022/01/10 00:41:13;;;;;;;13.88;3.10;;;26.30;99.90;;;;;;5073502;28;20029;-72
2022/01/10 00:43:45;;;;;;;20.58;3.47;;;26.30;99.90;;;;;;5073739;28;20024;-71
2022/01/10 00:46:13;;;;;;;24.27;5.93;;;26.30;99.90;;;;;;5074212;28;20032;-71
2022/01/10 00:48:41;;;;;;;16.73;4.13;;;26.30;99.90;;;;;;5074191;28;20028;-70
2022/01/10 00:51:08;;;;;;;15.73;3.15;;;26.30;99.90;;;;;;5073700;28;20024;-70
2022/01/10 00:53:36;;;;;;;19.48;3.50;;;26.30;99.90;;;;;;5073378;28;20074;-71
2022/01/10 00:56:04;;;;;;;23.15;4.80;;;26.30;99.90;;;;;;5073585;28;20051;-72
2022/01/10 00:58:31;;;;;;;18.48;4.38;;;26.50;99.90;;;;;;5073666;28;20025;-73
2022/01/10 01:00:58;;;;;;;15.00;3.70;;;26.50;99.90;;;;;;5073726;28;20431;-73
2022/01/10 01:03:26;;;;;;;18.55;4.00;;;26.60;99.90;;;;;;5073516;28;20409;-70
2022/01/10 01:05:53;;;;;;;23.40;3.58;;;26.80;99.90;;;;;;5073526;28;20430;-71
2022/01/10 01:08:20;;;;;;;21.85;4.30;;;27.10;99.90;;;;;;5073706;28;20150;-71
2022/01/10 01:13:34;;;;;;;16.08;3.72;;;27.50;99.90;;;;;;5073467;28;20040;-70
2022/01/10 01:24:09;;;;;;;19.10;4.78;;;28.30;99.90;;;;;;5073494;28;20081;-71
2022/01/10 01:26:48;;;;;;;14.80;3.28;;;28.20;99.90;;;;;;5073559;28;20025;-69
2022/01/10 01:29:19;;;;;;;19.42;4.15;;;28.20;99.90;;;;;;5073329;28;20397;-70
2022/01/10 01:31:46;;;;;;;16.88;3.50;;;28.10;99.90;;;;;;5071660;28;20040;-71
2022/01/10 01:34:15;;;;;;;15.23;3.55;;;28.10;99.90;;;;;;5073263;28;20028;-71
2022/01/10 01:36:50;;;;;;;17.75;3.85;;;28.10;99.90;;;;;;5073134;28;20119;-71
2022/01/10 01:39:24;;;;;;;18.05;3.65;;;28.20;99.90;;;;;;5072901;28;20457;-71
2022/01/10 01:41:56;;;;;;;16.15;3.17;;;28.30;99.90;;;;;;5072561;28;20056;-72
2022/01/10 01:44:24;;;;;;;22.50;3.50;;;28.60;99.90;;;;;;5072668;28;20031;-72
2022/01/10 01:46:51;;;;;;;16.92;4.38;;;29.00;99.90;;;;;;5073210;28;20541;-69
2022/01/10 01:49:18;;;;;;;17.50;3.17;;;29.20;99.90;;;;;;5072772;28;20020;-71
2022/01/10 01:51:46;;;;;;;17.10;3.47;;;29.00;99.90;;;;;;5072773;28;20024;-73
2022/01/10 01:54:13;;;;;;;17.02;3.40;;;28.60;99.90;;;;;;5073177;28;20162;-72
2022/01/10 01:56:41;;;;;;;20.33;4.30;;;28.30;99.90;;;;;;5072395;28;20028;-72
2022/01/10 01:59:09;;;;;;;15.77;3.95;;;28.10;99.90;;;;;;5072905;28;20024;-71
2022/01/10 02:01:37;;;;;;;17.25;3.03;;;27.90;99.90;;;;;;5072853;28;20020;-71
2022/01/10 02:04:04;;;;;;;18.65;4.03;;;27.60;99.90;;;;;;5072588;28;20036;-68
2022/01/10 02:06:32;;;;;;;22.25;4.53;;;27.20;99.90;;;;;;5071906;28;20024;-69
2022/01/10 02:08:59;;;;;;;16.77;4.15;;;26.80;99.90;;;;;;5071891;28;20024;-68
2022/01/10 02:11:27;;;;;;;24.48;4.68;;;26.40;99.90;;;;;;5072500;28;20013;-69
2022/01/10 02:13:54;;;;;;;17.35;4.57;;;26.20;99.90;;;;;;5072021;28;20047;-69
2022/01/10 02:16:32;;;;;;;18.02;4.07;;;26.20;99.90;;;;;;5071237;28;20131;-69
2022/01/10 02:19:00;;;;;;;31.90;5.57;;;26.20;99.90;;;;;;5063888;28;20047;-70
2022/01/10 02:21:27;;;;;;;15.52;5.57;;;26.10;99.90;;;;;;5072276;28;20025;-72
2022/01/10 02:23:54;;;;;;;22.08;5.57;;;26.20;99.90;;;;;;5072339;28;20465;-72
2022/01/10 02:26:22;;;;;;;24.85;4.65;;;26.60;99.90;;;;;;5071604;28;20099;-73
2022/01/10 02:28:49;;;;;;;20.48;3.95;;;26.90;99.90;;;;;;5071552;28;20481;-71
2022/01/10 02:31:17;;;;;;;17.83;3.88;;;27.20;99.90;;;;;;5066691;28;20443;-72
2022/01/10 02:33:46;;;;;;;17.33;3.88;;;27.20;99.90;;;;;;5071475;28;20020;-71
2022/01/10 02:36:46;;;;;;;22.88;4.40;;;27.60;99.90;;;;;;5070345;28;20090;-70
2022/01/10 02:39:10;;;;;;;22.08;3.80;;;28.00;99.90;;;;;;5069569;28;20037;-72
2022/01/10 02:41:40;;;;;;;15.90;4.35;;;28.30;99.90;;;;;;5071270;28;20028;-71
2022/01/10 02:44:14;;;;;;;20.73;3.83;;;28.60;99.90;;;;;;5071802;28;20025;-72
2022/01/10 02:46:44;;;;;;;15.70;3.75;;;28.70;99.90;;;;;;5071738;28;20034;-72
2022/01/10 02:49:15;;;;;;;14.32;2.67;;;28.70;99.90;;;;;;5072113;28;20023;-73
2022/01/10 02:51:43;;;;;;;19.60;3.97;;;29.00;99.90;;;;;;5070939;28;20070;-73
2022/01/10 02:54:12;;;;;;;18.48;3.58;;;29.00;99.90;;;;;;5071741;28;20052;-73
2022/01/10 02:56:51;;;;;;;13.30;3.10;;;28.90;99.90;;;;;;5071610;28;20032;-72
2022/01/10 02:59:20;;;;;;;14.77;3.58;;;29.10;99.90;;;;;;5071354;28;20442;-71
2022/01/10 03:01:48;;;;;;;13.90;2.97;;;29.40;99.90;;;;;;5071680;28;20017;-70
2022/01/10 03:04:16;;;;;;;13.90;2.78;;;29.80;99.90;;;;;;5071862;28;20420;-72
2022/01/10 03:06:44;;;;;;;18.95;3.35;;;29.90;99.90;;;;;;5071448;28;20029;-73
2022/01/10 03:09:12;;;;;;;17.00;3.97;;;30.00;99.90;;;;;;5071150;28;20070;-73
2022/01/10 03:11:42;;;;;;;20.55;3.20;;;30.10;99.90;;;;;;5070321;28;20111;-72
2022/01/10 03:14:12;;;;;;;15.30;3.20;;;29.90;99.90;;;;;;5071383;28;20032;-72
2022/01/10 03:16:40;;;;;;;17.83;3.75;;;30.00;99.90;;;;;;5071507;28;20081;-73
2022/01/10 03:19:07;;;;;;;16.50;3.58;;;30.10;99.90;;;;;;5071498;28;20024;-72
2022/01/10 03:21:35;;;;;;;13.40;2.97;;;30.00;99.90;;;;;;5071557;28;20448;-74
2022/01/10 03:24:03;;;;;;;21.48;4.82;;;30.00;99.90;;;;;;5070345;28;20056;-73
2022/01/10 03:26:32;;;;;;;19.65;3.75;;;29.80;99.90;;;;;;5072903;28;20052;-71
2022/01/10 03:28:59;;;;;;;15.35;3.55;;;29.80;99.90;;;;;;5075662;28;20025;-75
2022/01/10 03:31:27;;;;;;;14.50;2.80;;;29.50;99.90;;;;;;5075474;28;20054;-72
2022/01/10 03:33:55;;;;;;;13.15;2.80;;;29.50;99.90;;;;;;5075439;28;20056;-72
2022/01/10 03:36:22;;;;;;;9.43;2.00;;;29.40;99.90;;;;;;5075508;28;20128;-72
2022/01/10 03:38:50;;;;;;;13.32;3.25;;;29.20;99.90;;;;;;5075508;28;20032;-71
2022/01/10 03:41:17;;;;;;;20.05;3.03;;;29.10;99.90;;;;;;5074475;28;20127;-72
2022/01/10 03:43:45;;;;;;;16.25;2.63;;;29.00;99.90;;;;;;5074103;28;20020;-72
2022/01/10 03:46:13;;;;;;;13.57;2.25;;;29.00;99.90;;;;;;5075321;28;20017;-72
2022/01/10 03:48:40;;;;;;;12.52;2.70;;;29.00;99.90;;;;;;5075450;28;20021;-73
2022/01/10 03:51:09;;;;;;;15.93;3.13;;;29.20;99.90;;;;;;5074821;28;20063;-71
2022/01/10 03:53:36;;;;;;;13.75;3.10;;;29.20;99.90;;;;;;5075248;28;20527;-71
2022/01/10 03:56:04;;;;;;;14.20;2.78;;;29.40;99.90;;;;;;5075252;28;20040;-72
2022/01/10 03:58:36;;;;;;;13.23;2.78;;;29.50;99.90;;;;;;5075466;28;20020;-72
2022/01/10 04:01:05;;;;;;;11.45;3.13;;;29.40;99.90;;;;;;5075217;28;20119;-70
2022/01/10 04:03:32;;;;;;;17.83;3.03;;;29.50;99.90;;;;;;5075005;28;20020;-73
2022/01/10 04:05:59;;;;;;;10.25;2.60;;;29.60;99.90;;;;;;5075046;28;20029;-72
2022/01/10 04:08:27;;;;;;;15.63;2.78;;;29.80;99.90;;;;;;5075293;28;20031;-71
2022/01/10 04:10:54;;;;;;;9.65;3.15;;;29.90;99.90;;;;;;5074937;28;20028;-72
2022/01/10 04:13:23;;;;;;;17.27;3.00;;;29.90;99.90;;;;;;5075026;28;20025;-73
2022/01/10 04:15:51;;;;;;;14.65;3.40;;;30.10;99.90;;;;;;5074608;28;20170;-73
2022/01/10 04:18:19;;;;;;;16.42;4.13;;;30.10;99.90;;;;;;5074918;28;20497;-72
2022/01/10 04:20:47;;;;;;;14.10;3.13;;;30.10;99.90;;;;;;5075126;28;20532;-74
2022/01/10 04:23:16;;;;;;;16.67;3.22;;;30.30;99.90;;;;;;5075027;28;20112;-73
2022/01/10 04:25:44;;;;;;;11.43;2.90;;;30.70;99.90;;;;;;5074692;28;20504;-72
2022/01/10 04:28:12;;;;;;;14.95;3.80;;;30.90;99.90;;;;;;5074789;28;20625;-71
2022/01/10 04:30:39;;;;;;;14.38;2.70;;;31.40;99.90;;;;;;5073336;28;20055;-72
2022/01/10 04:33:07;;;;;;;15.45;3.70;;;31.90;99.90;;;;;;5074569;28;20032;-72
2022/01/10 04:35:34;;;;;;;11.82;2.75;;;32.10;99.80;;;;;;5074300;28;20123;-73
2022/01/10 04:38:02;;;;;;;17.23;3.60;;;32.20;99.10;;;;;;5073560;28;20047;-72
2022/01/10 04:40:29;;;;;;;16.15;3.60;;;32.40;99.50;;;;;;5074407;28;20028;-73
2022/01/10 04:42:56;;;;;;;15.02;2.78;;;32.50;99.00;;;;;;5069084;28;20025;-74
2022/01/10 04:45:24;;;;;;;15.23;3.10;;;32.40;98.00;;;;;;5059875;28;20021;-73
2022/01/10 04:47:51;;;;;;;17.50;3.03;;;32.40;98.60;;;;;;5060494;28;20473;-72
2022/01/10 04:52:46;;;;;;;10.98;3.13;;;32.40;97.80;;;;;;5063701;28;20042;-72
2022/01/10 04:55:14;;;;;;;15.93;3.33;;;32.10;98.30;;;;;;5059327;28;20025;-73
2022/01/10 04:57:42;;;;;;;15.65;3.63;;;32.10;98.60;;;;;;5060208;28;20028;-73
2022/01/10 05:00:12;;;;;;;12.50;3.83;;;32.30;98.30;;;;;;5072247;28;20029;-72
2022/01/10 05:02:41;;;;;;;10.55;2.47;;;32.40;98.00;;;;;;5070772;28;20473;-74
2022/01/10 05:05:09;;;;;;;12.50;2.30;;;32.90;96.60;;;;;;5068611;28;20029;-72
2022/01/10 05:07:36;;;;;;;11.50;2.50;;;32.70;96.70;;;;;;5069416;28;20055;-71
2022/01/10 05:10:05;;;;;;;13.30;2.47;;;32.50;97.20;;;;;;5060413;28;20870;-72
2022/01/10 05:12:32;;;;;;;12.88;2.70;;;32.70;96.60;;;;;;5061912;28;20032;-72
2022/01/10 05:15:00;;;;;;;12.73;3.08;;;32.90;96.60;;;;;;5065052;28;20103;-72
2022/01/10 05:17:28;;;;;;;15.50;3.20;;;33.00;96.10;;;;;;5068001;28;20027;-73
2022/01/10 05:19:55;;;;;;;11.57;2.03;;;33.10;96.10;;;;;;5060790;28;20036;-73
2022/01/10 05:22:23;;;;;;;11.88;2.30;;;33.00;95.80;;;;;;5060134;28;20142;-74
2022/01/10 05:24:50;;;;;;;13.73;3.50;;;32.80;95.40;;;;;;5054713;28;20017;-72
2022/01/10 05:27:17;;;;;;;10.77;2.53;;;32.70;95.90;;;;;;5054862;28;20021;-72
2022/01/10 05:29:44;;;;;;;14.55;2.75;;;32.60;95.90;;;;;;5054457;28;20090;-71
2022/01/10 05:32:12;;;;;;;14.30;3.42;;;32.70;96.30;;;;;;5056094;28;20076;-71
2022/01/10 05:34:39;;;;;;;13.05;2.63;;;32.40;96.40;;;;;;5063287;28;20017;-74
2022/01/10 05:37:06;;;;;;;13.30;2.38;;;32.30;96.90;;;;;;5053103;28;20029;-73
2022/01/10 05:39:34;;;;;;;13.52;3.08;;;32.50;96.60;;;;;;5055753;28;20017;-76
2022/01/10 05:42:01;;;;;;;13.52;2.58;;;32.50;96.60;;;;;;5053223;28;20025;-72
2022/01/10 05:44:28;;;;;;;14.68;3.63;;;32.50;95.80;;;;;;5052657;28;20029;-72
2022/01/10 05:46:59;;;;;;;12.48;2.60;;;32.50;95.70;;;;;;5053086;28;20021;-73
2022/01/10 05:49:32;;;;;;;15.30;2.47;;;32.30;95.30;;;;;;5050838;28;20017;-73
2022/01/10 05:52:00;;;;;;;13.02;2.65;;;32.30;94.40;;;;;;5052744;28;20028;-74
2022/01/10 05:54:27;;;;;;;16.73;3.10;;;32.20;95.10;;;;;;5052528;28;20373;-75
2022/01/10 05:56:55;;;;;;;14.48;2.63;;;31.80;95.70;;;;;;5052611;28;20071;-75
2022/01/10 05:59:22;;;;;;;13.45;3.03;;;31.70;95.90;;;;;;5053007;28;20372;-73
2022/01/10 06:01:49;;;;;;;11.90;2.80;;;32.00;95.80;;;;;;5052789;28;20059;-71
2022/01/10 06:04:17;;;;;;;16.35;3.50;;;32.10;95.80;;;;;;5052711;28;20466;-71
2022/01/10 06:06:44;;;;;;;13.88;3.53;;;32.00;95.70;;;;;;5052601;28;20108;-70
2022/01/10 06:09:11;;;;;;;10.65;2.78;;;31.70;95.90;;;;;;5052791;28;20025;-72
2022/01/10 06:11:40;;;;;;;13.45;3.78;;;31.40;96.80;;;;;;5052575;28;20680;-73
2022/01/10 06:14:08;;;;;;;12.02;2.17;;;31.00;97.30;;;;;;5052266;28;20029;-73
2022/01/10 06:16:35;;;;;;;9.60;2.50;;;30.90;97.70;;;;;;5052645;28;20044;-71
2022/01/10 06:19:03;;;;;;;15.13;2.67;;;30.60;97.90;;;;;;5067182;28;20161;-72
2022/01/10 06:21:30;;;;;;;11.15;2.22;;;30.30;98.90;;;;;;5062130;28;20023;-76
2022/01/10 06:23:58;;;;;;;15.65;3.17;;;30.10;99.00;;;;;;5091383;28;20028;-73
2022/01/10 06:26:25;;;;;;;19.58;3.78;;;29.90;99.10;;;;;;5084856;28;20048;-73
2022/01/10 06:28:52;;;;;;;13.32;3.08;;;29.80;99.70;;;;;;5071927;28;20027;-73
2022/01/10 06:31:20;;;;;;;13.98;2.35;;;29.80;99.30;;;;;;5070383;28;20052;-74
2022/01/10 06:33:47;;;;;;;21.23;3.78;;;29.80;98.60;;;;;;5069918;28;20024;-74
2022/01/10 06:36:17;;;;;;;13.25;2.88;;;29.80;98.30;;;;;;5068718;28;20056;-77
2022/01/10 06:38:44;;;;;;;13.80;2.70;;;29.70;98.40;;;;;;5075487;28;20016;-78
2022/01/10 06:41:12;;;;;;;13.15;2.50;;;29.60;99.00;;;;;;5083095;28;20063;-70
2022/01/10 06:43:39;;;;;;;13.07;2.78;;;29.60;99.40;;;;;;5070685;28;20040;-76
2022/01/10 06:46:07;;;;;;;16.13;2.30;;;29.50;99.50;;;;;;5069147;28;20028;-77
2022/01/10 06:48:34;;;;;;;12.60;2.50;;;29.40;99.30;;;;;;5070847;28;20021;-74
2022/01/10 06:51:02;;;;;;;19.02;4.57;;;29.40;99.90;;;;;;5071927;28;20016;-75
2022/01/10 06:53:29;;;;;;;18.95;3.40;;;29.40;99.70;;;;;;5070474;28;20045;-68
2022/01/10 06:55:56;;;;;;;12.88;2.47;;;29.20;99.90;;;;;;5071783;28;20032;-80
2022/01/10 06:58:24;;;;;;;14.70;2.90;;;29.00;99.90;;;;;;5071959;28;20023;-70
2022/01/10 07:00:51;;;;;;;13.63;2.80;;;28.80;99.90;;;;;;5071692;28;20024;-70
2022/01/10 07:03:19;;;;;;;15.57;3.42;;;28.90;99.90;;;;;;5070506;28;20454;-71
2022/01/10 07:05:46;;;;;;;19.95;2.95;;;28.70;99.90;;;;;;5070141;28;20400;-69
2022/01/10 07:08:13;;;;;;;8.05;2.67;;;28.50;99.90;;;;;;5075005;28;20016;-67
2022/01/10 07:10:41;;;;;;;17.35;2.88;;;28.50;99.90;;;;;;5070234;28;20024;-69
2022/01/10 07:13:08;;;;;;;12.27;3.17;;;28.50;99.90;;;;;;5071240;28;20556;-68
2022/01/10 07:15:35;;;;;;;15.48;3.25;;;28.50;99.90;;;;;;5079752;28;20043;-75
2022/01/10 07:18:03;;;;;;;14.95;3.13;;;28.60;99.90;;;;;;5092615;28;20384;-67
2022/01/10 07:20:32;;;;;;;18.27;3.47;;;28.30;99.90;;;;;;5090317;28;20024;-68
2022/01/10 07:22:59;;;;;;;14.20;2.60;;;28.20;99.90;;;;;;5090509;28;20032;-68
2022/01/10 07:25:26;;;;;;;19.30;3.95;;;28.10;99.90;;;;;;5092124;28;20024;-73
2022/01/10 07:27:54;;;;;;;15.10;2.45;;;28.10;99.90;;;;;;5077457;28;20077;-75
2022/01/10 07:30:21;;;;;;;14.75;3.17;;;28.00;99.90;;;;;;5046874;28;20031;-75
2022/01/10 07:32:49;;;;;;;18.90;3.92;;;27.90;99.90;;;;;;5049824;28;20034;-75
2022/01/10 07:35:16;;;;;;;17.35;3.50;;;27.90;99.90;;;;;;5066908;28;20031;-68
2022/01/10 07:37:43;;;;;;;15.75;3.63;;;27.80;99.90;;;;;;5058122;28;20500;-68
2022/01/10 07:40:11;;;;;;;19.58;3.72;;;27.70;99.90;;;;;;5067886;28;20021;-68
2022/01/10 07:42:39;;;;;;;21.73;4.35;;;27.50;99.90;;;;;;5068235;28;20347;-71
2022/01/10 07:45:06;;;;;;;18.20;4.05;;;27.50;99.90;;;;;;5068369;28;20017;-71
2022/01/10 07:47:35;;;;;;;17.33;3.08;;;27.50;99.90;;;;;;5069982;28;20020;-68
2022/01/10 07:50:05;;;;;;;15.77;3.90;;;27.40;99.90;;;;;;5069837;28;20021;-73
2022/01/10 07:52:32;;;;;;;14.57;3.13;;;27.40;99.90;;;;;;5069774;28;20020;-72
2022/01/10 07:54:59;;;;;;;14.82;2.88;;;27.20;99.90;;;;;;5068894;28;20039;-72
2022/01/10 07:57:27;;;;;;;18.25;3.65;;;27.10;99.90;;;;;;5069560;28;20021;-75
2022/01/10 07:59:54;;;;;;;15.80;3.15;;;27.00;99.90;;;;;;5068409;28;20025;-76
2022/01/10 08:02:21;;;;;;;15.20;3.40;;;26.90;99.90;;;;;;5069974;28;20058;-74
2022/01/10 08:04:52;;;;;;;13.95;3.08;;;26.80;99.90;;;;;;5069564;28;20119;-73
2022/01/10 08:07:19;;;;;;;17.02;3.53;;;26.80;99.90;;;;;;5069506;28;20104;-76
2022/01/10 08:09:47;;;;;;;14.57;3.33;;;26.70;99.90;;;;;;5069071;28;20016;-72
2022/01/10 08:12:14;;;;;;;13.30;3.17;;;26.60;99.90;;;;;;5070360;28;20040;-73
2022/01/10 08:14:42;;;;;;;15.32;3.83;;;26.50;99.90;;;;;;5073543;28;20100;-75
2022/01/10 08:17:09;;;;;;;17.67;4.53;;;26.50;99.90;;;;;;5071870;28;20029;-73
2022/01/10 08:19:37;;;;;;;18.75;4.22;;;26.40;99.90;;;;;;5072482;28;20366;-76
2022/01/10 08:22:04;;;;;;;24.38;4.38;;;26.40;99.90;;;;;;5068265;28;20496;-77
2022/01/10 08:24:32;;;;;;;20.33;4.05;;;26.50;99.90;;;;;;5070933;28;20017;-77
2022/01/10 08:26:59;;;;;;;15.38;3.70;;;26.40;99.90;;;;;;5072097;28;20048;-75
2022/01/10 08:29:27;;;;;;;14.85;3.75;;;26.30;99.90;;;;;;5072035;28;20020;-74
2022/01/10 08:31:55;;;;;;;16.27;3.00;;;26.40;99.90;;;;;;5072344;28;20110;-74
2022/01/10 08:34:24;;;;;;;16.08;3.70;;;26.40;99.90;;;;;;5072165;28;20354;-74
2022/01/10 08:36:52;;;;;;;16.88;3.08;;;26.30;99.90;;;;;;5074012;28;20044;-76
2022/01/10 08:39:21;;;;;;;16.55;3.85;;;26.40;99.90;;;;;;5068873;28;20402;-72
2022/01/10 08:41:49;;;;;;;16.42;3.97;;;26.40;99.90;;;;;;5053629;28;20033;-72
2022/01/10 08:44:17;;;;;;;18.40;3.30;;;26.40;99.90;;;;;;5061008;28;20020;-73
2022/01/10 08:46:46;;;;;;;15.05;3.42;;;26.40;99.90;;;;;;5072104;28;20050;-74
2022/01/10 08:49:14;;;;;;;14.68;3.85;;;26.30;99.90;;;;;;5073137;28;20099;-78
2022/01/10 08:51:42;;;;;;;24.88;4.20;;;26.10;99.90;;;;;;5073627;28;20029;-77
2022/01/10 08:54:10;;;;;;;14.77;4.03;;;26.00;99.90;;;;;;5074101;28;20125;-77
2022/01/10 08:56:38;;;;;;;19.90;3.65;;;26.00;99.90;;;;;;5073363;28;20033;-76
2022/01/10 08:59:06;;;;;;;17.58;4.68;;;25.90;99.90;;;;;;5072453;28;20017;-75
2022/01/10 09:01:34;;;;;;;19.30;5.32;;;25.80;99.90;;;;;;5073845;28;20029;-78
2022/01/10 09:04:01;;;;;;;13.63;3.83;;;25.80;99.90;;;;;;5073901;28;20028;-76
2022/01/10 09:06:29;;;;;;;16.88;3.45;;;25.80;99.90;;;;;;5073149;28;20112;-77
2022/01/10 09:08:56;;;;;;;20.88;4.22;;;25.80;99.90;;;;;;5073303;28;20496;-76
2022/01/10 09:11:25;;;;;;;14.52;3.67;;;25.80;99.90;;;;;;5070487;28;20384;-77
2022/01/10 09:13:52;;;;;;;20.50;4.45;;;25.70;99.90;;;;;;5064037;28;20055;-77
2022/01/10 09:16:19;;;;;;;21.10;5.53;;;25.70;99.90;;;;;;5072551;28;20573;-77
2022/01/10 09:18:46;;;;;;;29.77;5.43;;;25.60;99.90;;;;;;5071753;28;20107;-77
2022/01/10 09:21:14;;;;;;;22.45;4.93;;;25.60;99.90;;;;;;5073448;28;20044;-77
2022/01/10 09:23:41;;;;;;;19.33;4.07;;;25.60;99.90;;;;;;5060327;28;20074;-75
2022/01/10 09:26:08;;;;;;;20.90;3.83;;;25.60;99.90;;;;;;5053399;28;20087;-76
2022/01/10 09:28:36;;;;;;;23.88;4.82;;;25.50;99.90;;;;;;5065877;28;20576;-73
2022/01/10 09:31:03;;;;;;;20.17;3.85;;;25.50;99.90;;;;;;5067176;28;20059;-81
2022/01/10 09:33:31;;;;;;;17.27;4.00;;;25.40;99.90;;;;;;5068810;28;20432;-74
2022/01/10 09:35:59;;;;;;;23.80;6.35;;;25.30;99.90;;;;;;5069070;28;20057;-74
2022/01/10 09:38:26;;;;;;;23.63;5.03;;;25.30;99.90;;;;;;5069913;28;20142;-75
2022/01/10 09:40:53;;;;;;;21.88;4.65;;;25.30;99.90;;;;;;5059873;28;20025;-73
2022/01/10 09:43:21;;;;;;;20.63;4.68;;;25.30;99.90;;;;;;5070021;28;20028;-72
2022/01/10 09:45:51;;;;;;;18.05;4.57;;;25.30;99.90;;;;;;5063234;28;20501;-76
2022/01/10 09:48:18;;;;;;;19.73;4.15;;;25.30;99.90;;;;;;5060090;28;20389;-76
2022/01/10 09:50:46;;;;;;;19.35;4.38;;;25.20;99.90;;;;;;5065917;28;20024;-72
2022/01/10 09:53:15;;;;;;;17.70;4.15;;;25.20;99.90;;;;;;5073231;28;20059;-74
2022/01/10 09:55:42;;;;;;;27.13;5.15;;;25.10;99.90;;;;;;5072894;28;20039;-72
2022/01/10 09:58:10;;;;;;;16.13;4.15;;;25.10;99.90;;;;;;5072883;28;20526;-74
2022/01/10 10:00:37;;;;;;;20.50;4.65;;;25.10;99.90;;;;;;5070306;28;20095;-72
2022/01/10 10:03:06;;;;;;;26.08;5.97;;;25.10;99.90;;;;;;5072622;28;20039;-72
2022/01/10 10:05:34;;;;;;;26.58;4.82;;;25.10;99.90;;;;;;5065325;28;20048;-76
2022/01/10 10:08:02;;;;;;;16.77;3.50;;;25.00;99.90;;;;;;5056961;28;20119;-76
2022/01/10 10:10:30;;;;;;;23.45;5.18;;;25.10;99.90;;;;;;5055826;28;20013;-75
2022/01/10 10:12:57;;;;;;;23.15;4.72;;;25.00;99.90;;;;;;5071800;28;20036;-75
2022/01/10 10:15:30;;;;;;;23.88;5.22;;;25.10;99.90;;;;;;5063118;28;20048;-73
2022/01/10 10:17:58;;;;;;;16.98;4.70;;;25.00;99.90;;;;;;5066491;28;20058;-72
2022/01/10 10:20:26;;;;;;;25.25;4.63;;;25.00;99.90;;;;;;5065622;28;20036;-74
2022/01/10 10:22:54;;;;;;;24.75;6.22;;;25.00;99.90;;;;;;5066661;28;20020;-74
2022/01/10 10:25:21;;;;;;;18.50;5.47;;;25.00;99.90;;;;;;5066927;28;20029;-74
2022/01/10 10:27:49;;;;;;;19.25;4.47;;;25.00;99.90;;;;;;5065665;28;20035;-72
2022/01/10 10:30:27;;;;;;;19.23;5.32;;;25.00;99.90;;;;;;5066208;28;20033;-71
2022/01/10 10:33:25;;;;;;;22.48;4.35;;;25.00;99.90;;;;;;5066567;28;20025;-70
2022/01/10 10:36:08;;;;;;;27.15;6.03;;;25.00;99.90;;;;;;5066551;28;20090;-72
2022/01/10 10:38:35;;;;;;;;;;;25.00;99.90;;;;;;5067036;28;20386;-73
2022/01/10 10:41:05;;;;;;;27.63;5.43;;;24.80;99.90;;;;;;5067195;28;20392;-72
2022/01/10 10:43:33;;;;;;;27.52;6.63;;;24.90;99.90;;;;;;5066093;28;20032;-73
2022/01/10 10:46:11;;;;;;;17.13;5.25;;;24.90;99.90;;;;;;5065936;28;20097;-72
2022/01/10 10:48:40;;;;;;;19.00;4.95;;;24.80;99.90;;;;;;5066944;28;20025;-73
2022/01/10 10:51:07;;;;;;;24.45;5.90;;;24.80;99.90;;;;;;5066297;28;20064;-72
2022/01/10 10:53:35;;;;;;;22.80;4.78;;;24.80;99.90;;;;;;5066744;28;20024;-71
2022/01/10 10:56:04;;;;;;;27.38;5.53;;;24.80;99.90;;;;;;5066322;28;20079;-72
2022/01/10 10:58:32;;;;;;;15.75;4.57;;;24.80;99.90;;;;;;5066208;28;20040;-75
2022/01/10 11:01:01;;;;;;;23.30;5.13;;;24.80;99.90;;;;;;5066340;28;20016;-73
2022/01/10 11:03:29;;;;;;;29.30;6.43;;;24.80;99.90;;;;;;5066431;28;20063;-69
2022/01/10 11:05:59;;;;;;;20.83;5.35;;;24.80;99.90;;;;;;5066192;28;20032;-74
2022/01/10 11:08:28;;;;;;;22.70;5.80;;;24.80;99.90;;;;;;5064364;28;20029;-73
2022/01/10 11:10:56;;;;;;;20.95;5.70;;;24.80;99.90;;;;;;5065591;28;20033;-68
2022/01/10 11:13:24;;;;;;;23.63;4.93;;;24.70;99.90;;;;;;5065249;28;20743;-71
2022/01/10 11:15:53;;;;;;;19.25;5.15;;;24.80;99.90;;;;;;5064585;28;20451;-72
2022/01/10 11:18:22;;;;;;;22.00;5.65;;;24.80;99.90;;;;;;5065649;28;20028;-71
2022/01/10 11:20:57;;;;;;;20.83;4.90;;;24.70;99.90;;;;;;5065629;28;20032;-72
2022/01/10 11:23:26;;;;;;;18.33;4.35;;;24.70;99.90;;;;;;5065901;28;20029;-73
2022/01/10 11:25:56;;;;;;;17.48;4.07;;;24.70;99.90;;;;;;5065306;28;20060;-72
2022/01/10 11:28:26;;;;;;;23.25;4.88;;;24.70;99.90;;;;;;5065972;28;20025;-73
2022/01/10 11:30:58;;;;;;;23.40;5.00;;;24.60;99.90;;;;;;5066248;28;20052;-74
2022/01/10 11:33:31;;;;;;;24.52;5.68;;;24.60;99.90;;;;;;5065052;28;20119;-71
2022/01/10 11:36:01;;;;;;;27.33;5.80;;;24.60;99.90;;;;;;5065189;28;20044;-72
2022/01/10 11:38:39;;;;;;;23.48;5.63;;;24.60;99.90;;;;;;5066264;28;20439;-71
2022/01/10 11:41:21;;;;;;;22.73;5.20;;;24.60;99.90;;;;;;5065879;28;20058;-69
2022/01/10 11:44:03;;;;;;;15.90;4.13;;;24.50;99.90;;;;;;5065947;28;20074;-72
2022/01/10 11:46:48;;;;;;;23.65;5.68;;;24.60;99.90;;;;;;5066304;28;20459;-72
2022/01/10 11:49:15;;;;;;;17.67;5.57;;;24.60;99.90;;;;;;5070174;28;20913;-72
2022/01/10 11:51:45;;;;;;;20.20;6.07;;;24.60;99.90;;;;;;5070010;28;20024;-72
2022/01/10 11:54:22;;;;;;;21.63;5.32;;;24.60;99.90;;;;;;5069790;28;20032;-73
2022/01/10 11:56:59;;;;;;;21.90;4.75;;;24.60;99.90;;;;;;5069516;28;20048;-71
2022/01/10 11:59:26;;;;;;;16.50;4.53;;;24.60;99.90;;;;;;5069317;28;20443;-72
2022/01/10 12:01:57;;;;;;;16.67;4.78;;;24.60;99.90;;;;;;5070069;28;20035;-72
2022/01/10 12:04:26;;;;;;;16.33;5.15;;;24.60;99.90;;;;;;5069455;28;20012;-69
2022/01/10 12:06:53;;;;;;;18.38;4.38;;;24.60;99.90;;;;;;5071299;28;20083;-76
2022/01/10 12:09:21;;;;;;;20.20;4.97;;;24.60;99.90;;;;;;5073068;28;20025;-75
2022/01/10 12:11:51;;;;;;;23.80;4.78;;;24.60;99.90;;;;;;5074550;28;20048;-74
2022/01/10 12:14:22;;;;;;;25.17;5.55;;;24.60;99.90;;;;;;5074744;28;20419;-74
2022/01/10 12:16:50;;;;;;;29.33;4.93;;;24.60;99.90;;;;;;5074821;28;20032;-72
2022/01/10 12:19:19;;;;;;;25.75;4.88;;;24.50;99.90;;;;;;5074394;28;20107;-74
2022/01/10 12:21:47;;;;;;;18.45;4.90;;;24.50;99.90;;;;;;5064885;28;20477;-74
2022/01/10 12:24:14;;;;;;;20.02;5.07;;;24.50;99.90;;;;;;5069968;28;20501;-76
2022/01/10 12:26:43;;;;;;;22.13;6.78;;;24.50;99.90;;;;;;5072694;28;20035;-75
2022/01/10 12:29:12;;;;;;;24.73;6.80;;;24.60;99.90;;;;;;5073810;28;20164;-76
2022/01/10 12:31:42;;;;;;;22.33;4.53;;;24.60;99.90;;;;;;5072521;28;20561;-75
2022/01/10 12:34:11;;;;;;;25.17;5.10;;;24.60;99.90;;;;;;5072542;28;20037;-69
2022/01/10 12:36:40;;;;;;;18.90;4.75;;;24.60;99.90;;;;;;5069959;28;20503;-76
2022/01/10 12:39:37;;;;;;;18.35;4.35;;;24.60;99.90;;;;;;5070492;28;20538;-72
2022/01/10 12:42:05;;;;;;;21.48;4.43;;;24.60;99.90;;;;;;5073262;28;20085;-77
2022/01/10 12:44:32;;;;;;;19.42;4.80;;;24.60;99.90;;;;;;5073748;28;20114;-73
2022/01/10 12:46:59;;;;;;;22.67;5.25;;;24.60;99.90;;;;;;5073559;28;20020;-76
2022/01/10 12:49:27;;;;;;;21.85;5.00;;;24.60;99.90;;;;;;5074660;28;20016;-76
2022/01/10 12:51:57;;;;;;;18.08;4.82;;;24.70;99.90;;;;;;5073519;28;20618;-76
2022/01/10 12:54:29;;;;;;;17.90;4.20;;;24.70;99.90;;;;;;5073518;28;20024;-76
2022/01/10 12:56:59;;;;;;;17.50;4.88;;;24.70;99.90;;;;;;5071667;28;20032;-73
2022/01/10 12:59:28;;;;;;;19.73;5.40;;;24.70;99.90;;;;;;5052161;28;20082;-73